sensor_id;sensor_type;location;lat;lon;timestamp;pressure;altitude;pressure_sealevel;temperature;humidity
52993;BME280;38875;52.216;21.040;2022-09-09T00:01:21;147757.63;;;11.47;100.00
52993;BME280;38875;52.216;21.040;2022-09-09T00:03:54;147746.19;;;11.43;100.00
52993;BME280;38875;52.216;21.040;2022-09-09T00:06:35;147730.94;;;11.37;100.00
52993;BME280;38875;52.216;21.040;2022-09-09T00:09:07;147723.31;;;11.34;100.00
52993;BME280;38875;52.216;21.040;2022-09-09T00:14:36;147702.94;;;11.26;100.00
52993;BME280;38875;52.216;21.040;2022-09-09T00:17:16;147697.88;;;11.24;100.00
52993;BME280;38875;52.216;21.040;2022-09-09T00:19:50;147685.16;;;11.18;100.00
52993;BME280;38875;52.216;21.040;2022-09-09T00:22:22;147699.13;;;11.24;100.00
52993;BME280;38875;52.216;21.040;2022-09-09T00:24:52;147700.41;;;11.25;100.00
52993;BME280;38875;52.216;21.040;2022-09-09T00:27:40;147688.97;;;11.20;100.00
52993;BME280;38875;52.216;21.040;2022-09-09T00:32:50;147705.50;;;11.27;100.00
52993;BME280;38875;52.216;21.040;2022-09-09T00:35:34;147697.88;;;11.24;100.00
52993;BME280;38875;52.216;21.040;2022-09-09T00:38:09;147690.25;;;11.21;100.00
52993;BME280;38875;52.216;21.040;2022-09-09T00:40:44;147682.63;;;11.17;100.00
52993;BME280;38875;52.216;21.040;2022-09-09T00:43:28;147675.00;;;11.14;100.00
52993;BME280;38875;52.216;21.040;2022-09-09T00:57:07;147682.63;;;11.17;100.00
52993;BME280;38875;52.216;21.040;2022-09-09T01:07:49;147692.78;;;11.22;100.00
52993;BME280;38875;52.216;21.040;2022-09-09T01:10:52;147699.13;;;11.24;100.00
52993;BME280;38875;52.216;21.040;2022-09-09T01:13:27;147691.50;;;11.21;100.00
52993;BME280;38875;52.216;21.040;2022-09-09T01:15:58;147702.94;;;11.26;100.00
52993;BME280;38875;52.216;21.040;2022-09-09T01:18:38;147701.69;;;11.25;100.00
52993;BME280;38875;52.216;21.040;2022-09-09T01:24:08;147690.25;;;11.21;100.00
52993;BME280;38875;52.216;21.040;2022-09-09T01:26:41;147696.59;;;11.23;100.00
52993;BME280;38875;52.216;21.040;2022-09-09T01:29:10;147705.50;;;11.27;100.00
52993;BME280;38875;52.216;21.040;2022-09-09T01:31:39;147715.69;;;11.31;100.00
52993;BME280;38875;52.216;21.040;2022-09-09T01:34:14;147708.06;;;11.28;100.00
52993;BME280;38875;52.216;21.040;2022-09-09T01:36:52;147700.41;;;11.25;100.00
52993;BME280;38875;52.216;21.040;2022-09-09T01:39:19;147701.69;;;11.25;100.00
52993;BME280;38875;52.216;21.040;2022-09-09T01:41:46;147718.25;;;11.32;100.00
52993;BME280;38875;52.216;21.040;2022-09-09T01:44:11;147700.41;;;11.25;100.00
52993;BME280;38875;52.216;21.040;2022-09-09T01:46:38;147700.41;;;11.25;100.00
52993;BME280;38875;52.216;21.040;2022-09-09T01:49:05;147697.88;;;11.24;100.00
52993;BME280;38875;52.216;21.040;2022-09-09T01:51:33;147695.31;;;11.23;100.00
52993;BME280;38875;52.216;21.040;2022-09-09T01:53:59;147701.69;;;11.25;100.00
52993;BME280;38875;52.216;21.040;2022-09-09T01:59:22;147696.59;;;11.23;100.00
52993;BME280;38875;52.216;21.040;2022-09-09T02:06:59;147715.69;;;11.31;100.00
52993;BME280;38875;52.216;21.040;2022-09-09T02:09:26;147705.50;;;11.27;100.00
52993;BME280;38875;52.216;21.040;2022-09-09T02:12:00;147724.59;;;11.34;100.00
52993;BME280;38875;52.216;21.040;2022-09-09T02:14:34;147730.94;;;11.37;100.00
52993;BME280;38875;52.216;21.040;2022-09-09T02:17:07;147718.25;;;11.32;100.00
52993;BME280;38875;52.216;21.040;2022-09-09T02:19:51;147710.63;;;11.29;100.00
52993;BME280;38875;52.216;21.040;2022-09-09T02:22:20;147734.75;;;11.38;100.00
52993;BME280;38875;52.216;21.040;2022-09-09T02:24:49;147719.50;;;11.32;100.00
52993;BME280;38875;52.216;21.040;2022-09-09T02:27:17;147727.13;;;11.35;100.00
52993;BME280;38875;52.216;21.040;2022-09-09T02:29:45;147723.31;;;11.34;100.00
52993;BME280;38875;52.216;21.040;2022-09-09T02:32:15;147722.06;;;11.33;100.00
52993;BME280;38875;52.216;21.040;2022-09-09T02:34:45;147739.84;;;11.40;100.00
52993;BME280;38875;52.216;21.040;2022-09-09T02:37:15;147746.19;;;11.43;100.00
52993;BME280;38875;52.216;21.040;2022-09-09T02:39:43;147739.84;;;11.40;100.00
52993;BME280;38875;52.216;21.040;2022-09-09T02:42:08;147746.19;;;11.43;100.00
52993;BME280;38875;52.216;21.040;2022-09-09T02:44:35;147724.59;;;11.34;100.00
52993;BME280;38875;52.216;21.040;2022-09-09T02:50:16;147761.44;;;11.49;100.00
52993;BME280;38875;52.216;21.040;2022-09-09T02:55:57;147741.09;;;11.41;100.00
52993;BME280;38875;52.216;21.040;2022-09-09T02:58:25;147743.66;;;11.42;100.00
52993;BME280;38875;52.216;21.040;2022-09-09T03:00:51;147741.09;;;11.41;100.00
52993;BME280;38875;52.216;21.040;2022-09-09T03:03:17;147741.09;;;11.41;100.00
52993;BME280;38875;52.216;21.040;2022-09-09T03:05:45;147751.28;;;11.45;100.00
52993;BME280;38875;52.216;21.040;2022-09-09T03:08:11;147736.03;;;11.39;100.00
52993;BME280;38875;52.216;21.040;2022-09-09T03:10:38;147755.09;;;11.46;100.00
52993;BME280;38875;52.216;21.040;2022-09-09T03:13:04;147751.28;;;11.45;100.00
52993;BME280;38875;52.216;21.040;2022-09-09T03:15:32;147761.44;;;11.49;100.00
52993;BME280;38875;52.216;21.040;2022-09-09T03:17:58;147746.19;;;11.43;100.00
52993;BME280;38875;52.216;21.040;2022-09-09T03:20:27;147766.53;;;11.51;100.00
52993;BME280;38875;52.216;21.040;2022-09-09T03:22:53;147737.31;;;11.39;100.00
52993;BME280;38875;52.216;21.040;2022-09-09T03:25:20;147757.63;;;11.47;100.00
52993;BME280;38875;52.216;21.040;2022-09-09T03:27:46;147746.19;;;11.43;100.00
52993;BME280;38875;52.216;21.040;2022-09-09T03:30:12;147753.81;;;11.46;100.00
52993;BME280;38875;52.216;21.040;2022-09-09T03:32:37;147758.91;;;11.48;100.00
52993;BME280;38875;52.216;21.040;2022-09-09T03:35:03;147750.00;;;11.44;100.00
52993;BME280;38875;52.216;21.040;2022-09-09T03:37:29;147758.91;;;11.48;100.00
52993;BME280;38875;52.216;21.040;2022-09-09T03:39:55;147756.34;;;11.47;100.00
52993;BME280;38875;52.216;21.040;2022-09-09T03:42:21;147742.38;;;11.41;100.00
52993;BME280;38875;52.216;21.040;2022-09-09T03:44:47;147762.72;;;11.49;100.00
52993;BME280;38875;52.216;21.040;2022-09-09T03:47:16;147776.69;;;11.55;100.00
52993;BME280;38875;52.216;21.040;2022-09-09T03:49:43;147776.69;;;11.55;100.00
52993;BME280;38875;52.216;21.040;2022-09-09T03:52:09;147767.78;;;11.52;100.00
52993;BME280;38875;52.216;21.040;2022-09-09T03:54:35;147751.28;;;11.45;100.00
52993;BME280;38875;52.216;21.040;2022-09-09T03:57:01;147762.72;;;11.49;100.00
52993;BME280;38875;52.216;21.040;2022-09-09T03:59:28;147797.06;;;11.63;100.00
52993;BME280;38875;52.216;21.040;2022-09-09T04:01:53;147769.06;;;11.52;100.00
52993;BME280;38875;52.216;21.040;2022-09-09T04:04:20;147774.16;;;11.54;100.00
52993;BME280;38875;52.216;21.040;2022-09-09T04:06:46;147797.06;;;11.63;100.00
52993;BME280;38875;52.216;21.040;2022-09-09T04:09:14;147808.50;;;11.68;100.00
52993;BME280;38875;52.216;21.040;2022-09-09T04:11:40;147804.69;;;11.66;100.00
52993;BME280;38875;52.216;21.040;2022-09-09T04:14:06;147779.22;;;11.56;100.00
52993;BME280;38875;52.216;21.040;2022-09-09T04:16:34;147802.16;;;11.65;100.00
52993;BME280;38875;52.216;21.040;2022-09-09T04:19:03;147804.69;;;11.66;100.00
52993;BME280;38875;52.216;21.040;2022-09-09T04:21:30;147795.78;;;11.63;100.00
52993;BME280;38875;52.216;21.040;2022-09-09T04:23:56;147809.78;;;11.68;100.00
52993;BME280;38875;52.216;21.040;2022-09-09T04:26:22;147794.53;;;11.62;100.00
52993;BME280;38875;52.216;21.040;2022-09-09T04:28:48;147789.44;;;11.60;100.00
52993;BME280;38875;52.216;21.040;2022-09-09T04:31:19;147805.97;;;11.67;100.00
52993;BME280;38875;52.216;21.040;2022-09-09T04:33:45;147794.53;;;11.62;100.00
52993;BME280;38875;52.216;21.040;2022-09-09T04:36:12;147803.41;;;11.66;100.00
52993;BME280;38875;52.216;21.040;2022-09-09T04:38:38;147828.84;;;11.76;100.00
52993;BME280;38875;52.216;21.040;2022-09-09T04:41:04;147832.66;;;11.77;100.00
52993;BME280;38875;52.216;21.040;2022-09-09T04:43:30;147821.22;;;11.73;100.00
52993;BME280;38875;52.216;21.040;2022-09-09T04:45:56;147822.47;;;11.73;100.00
52993;BME280;38875;52.216;21.040;2022-09-09T04:48:22;147814.84;;;11.70;100.00
52993;BME280;38875;52.216;21.040;2022-09-09T04:50:56;147840.31;;;11.81;100.00
52993;BME280;38875;52.216;21.040;2022-09-09T04:53:22;147833.97;;;11.78;100.00
52993;BME280;38875;52.216;21.040;2022-09-09T04:55:49;147842.88;;;11.82;100.00
52993;BME280;38875;52.216;21.040;2022-09-09T04:58:14;147841.59;;;11.81;100.00
52993;BME280;38875;52.216;21.040;2022-09-09T05:00:40;147874.69;;;11.94;100.00
52993;BME280;38875;52.216;21.040;2022-09-09T05:03:07;147858.16;;;11.88;100.00
52993;BME280;38875;52.216;21.040;2022-09-09T05:05:34;147839.06;;;11.80;100.00
52993;BME280;38875;52.216;21.040;2022-09-09T05:08:01;147856.91;;;11.87;100.00
52993;BME280;38875;52.216;21.040;2022-09-09T05:10:28;147875.97;;;11.95;100.00
52993;BME280;38875;52.216;21.040;2022-09-09T05:12:53;147868.34;;;11.92;100.00
52993;BME280;38875;52.216;21.040;2022-09-09T05:15:20;147867.06;;;11.91;100.00
52993;BME280;38875;52.216;21.040;2022-09-09T05:17:46;147853.09;;;11.86;100.00
52993;BME280;38875;52.216;21.040;2022-09-09T05:20:13;147883.59;;;11.98;100.00
52993;BME280;38875;52.216;21.040;2022-09-09T05:22:38;147881.06;;;11.97;100.00
52993;BME280;38875;52.216;21.040;2022-09-09T05:25:04;147868.34;;;11.92;100.00
52993;BME280;38875;52.216;21.040;2022-09-09T05:27:30;147878.50;;;11.96;100.00
52993;BME280;38875;52.216;21.040;2022-09-09T05:29:58;147884.84;;;11.98;100.00
52993;BME280;38875;52.216;21.040;2022-09-09T05:32:24;147886.13;;;11.99;100.00
52993;BME280;38875;52.216;21.040;2022-09-09T05:34:49;147897.56;;;12.03;100.00
52993;BME280;38875;52.216;21.040;2022-09-09T05:37:16;147895.03;;;12.02;100.00
52993;BME280;38875;52.216;21.040;2022-09-09T05:39:42;147895.03;;;12.02;100.00
52993;BME280;38875;52.216;21.040;2022-09-09T05:42:07;147896.28;;;12.03;100.00
52993;BME280;38875;52.216;21.040;2022-09-09T05:44:33;147886.13;;;11.99;100.00
52993;BME280;38875;52.216;21.040;2022-09-09T05:47:00;147901.38;;;12.05;100.00
52993;BME280;38875;52.216;21.040;2022-09-09T05:49:28;147892.47;;;12.01;100.00
52993;BME280;38875;52.216;21.040;2022-09-09T05:51:53;147910.28;;;12.08;100.00
52993;BME280;38875;52.216;21.040;2022-09-09T05:54:19;147914.09;;;12.10;100.00
52993;BME280;38875;52.216;21.040;2022-09-09T05:56:45;147920.44;;;12.13;100.00
52993;BME280;38875;52.216;21.040;2022-09-09T05:59:12;147924.25;;;12.14;100.00
52993;BME280;38875;52.216;21.040;2022-09-09T06:01:38;147911.56;;;12.09;100.00
52993;BME280;38875;52.216;21.040;2022-09-09T06:04:07;147924.25;;;12.14;100.00
52993;BME280;38875;52.216;21.040;2022-09-09T06:06:35;147947.19;;;12.23;100.00
52993;BME280;38875;52.216;21.040;2022-09-09T06:09:03;147939.56;;;12.20;100.00
52993;BME280;38875;52.216;21.040;2022-09-09T06:11:32;147947.19;;;12.23;100.00
52993;BME280;38875;52.216;21.040;2022-09-09T06:13:58;147956.09;;;12.27;100.00
52993;BME280;38875;52.216;21.040;2022-09-09T06:16:26;147962.47;;;12.29;100.00
52993;BME280;38875;52.216;21.040;2022-09-09T06:18:53;147965.00;;;12.30;100.00
52993;BME280;38875;52.216;21.040;2022-09-09T06:21:22;147962.47;;;12.29;100.00
52993;BME280;38875;52.216;21.040;2022-09-09T06:23:48;147975.16;;;12.34;100.00
52993;BME280;38875;52.216;21.040;2022-09-09T06:28:42;147958.66;;;12.28;100.00
52993;BME280;38875;52.216;21.040;2022-09-09T06:31:10;147985.34;;;12.38;100.00
52993;BME280;38875;52.216;21.040;2022-09-09T06:33:38;147980.25;;;12.36;100.00
52993;BME280;38875;52.216;21.040;2022-09-09T06:36:12;147971.34;;;12.33;100.00
52993;BME280;38875;52.216;21.040;2022-09-09T06:38:39;147998.09;;;12.44;100.00
52993;BME280;38875;52.216;21.040;2022-09-09T06:41:05;147982.81;;;12.37;100.00
52993;BME280;38875;52.216;21.040;2022-09-09T06:43:31;147998.09;;;12.44;100.00
52993;BME280;38875;52.216;21.040;2022-09-09T06:46:03;148009.56;;;12.48;100.00
52993;BME280;38875;52.216;21.040;2022-09-09T06:48:30;148000.66;;;12.45;100.00
52993;BME280;38875;52.216;21.040;2022-09-09T06:53:34;148008.28;;;12.48;100.00
52993;BME280;38875;52.216;21.040;2022-09-09T06:56:24;148018.44;;;12.52;100.00
52993;BME280;38875;52.216;21.040;2022-09-09T06:58:52;148018.44;;;12.52;100.00
52993;BME280;38875;52.216;21.040;2022-09-09T07:01:20;148026.09;;;12.55;100.00
52993;BME280;38875;52.216;21.040;2022-09-09T07:03:48;148056.59;;;12.67;100.00
52993;BME280;38875;52.216;21.040;2022-09-09T07:06:28;148043.88;;;12.62;100.00
52993;BME280;38875;52.216;21.040;2022-09-09T07:08:56;148031.16;;;12.57;100.00
52993;BME280;38875;52.216;21.040;2022-09-09T07:11:36;148050.25;;;12.64;100.00
52993;BME280;38875;52.216;21.040;2022-09-09T07:14:02;148041.34;;;12.61;100.00
52993;BME280;38875;52.216;21.040;2022-09-09T07:16:28;148065.50;;;12.70;100.00
52993;BME280;38875;52.216;21.040;2022-09-09T07:18:56;148065.50;;;12.70;100.00
52993;BME280;38875;52.216;21.040;2022-09-09T07:21:27;148079.56;;;12.76;100.00
52993;BME280;38875;52.216;21.040;2022-09-09T07:23:54;148099.91;;;12.84;100.00
52993;BME280;38875;52.216;21.040;2022-09-09T07:26:22;148087.19;;;12.79;100.00
52993;BME280;38875;52.216;21.040;2022-09-09T07:28:49;148079.56;;;12.76;100.00
52993;BME280;38875;52.216;21.040;2022-09-09T07:31:20;148064.22;;;12.70;100.00
52993;BME280;38875;52.216;21.040;2022-09-09T07:33:47;148051.53;;;12.65;100.00
52993;BME280;38875;52.216;21.040;2022-09-09T07:36:16;148074.47;;;12.74;100.00
52993;BME280;38875;52.216;21.040;2022-09-09T07:38:45;148097.34;;;12.83;100.00
52993;BME280;38875;52.216;21.040;2022-09-09T07:41:14;148083.38;;;12.78;100.00
52993;BME280;38875;52.216;21.040;2022-09-09T07:43:42;148065.50;;;12.70;100.00
52993;BME280;38875;52.216;21.040;2022-09-09T07:46:10;148065.50;;;12.70;100.00
52993;BME280;38875;52.216;21.040;2022-09-09T07:48:37;148084.63;;;12.78;100.00
52993;BME280;38875;52.216;21.040;2022-09-09T07:51:11;148099.91;;;12.84;100.00
52993;BME280;38875;52.216;21.040;2022-09-09T07:53:40;148099.91;;;12.84;100.00
52993;BME280;38875;52.216;21.040;2022-09-09T07:56:09;148092.28;;;12.81;100.00
52993;BME280;38875;52.216;21.040;2022-09-09T07:58:40;148110.06;;;12.88;100.00
52993;BME280;38875;52.216;21.040;2022-09-09T08:03:46;148074.47;;;12.74;100.00
52993;BME280;38875;52.216;21.040;2022-09-09T08:06:13;148096.09;;;12.83;100.00
52993;BME280;38875;52.216;21.040;2022-09-09T08:08:40;148099.91;;;12.84;100.00
52993;BME280;38875;52.216;21.040;2022-09-09T08:11:10;148094.81;;;12.82;100.00
52993;BME280;38875;52.216;21.040;2022-09-09T08:13:37;148116.44;;;12.91;100.00
52993;BME280;38875;52.216;21.040;2022-09-09T08:16:09;148106.25;;;12.87;100.00
52993;BME280;38875;52.216;21.040;2022-09-09T08:18:35;148079.56;;;12.76;100.00
52993;BME280;38875;52.216;21.040;2022-09-09T08:21:21;148101.16;;;12.85;100.00
52993;BME280;38875;52.216;21.040;2022-09-09T08:23:50;148131.69;;;12.97;100.00
52993;BME280;38875;52.216;21.040;2022-09-09T08:26:20;148134.25;;;12.98;100.00
52993;BME280;38875;52.216;21.040;2022-09-09T08:28:49;148125.34;;;12.94;100.00
52993;BME280;38875;52.216;21.040;2022-09-09T08:31:22;148158.47;;;13.08;100.00
52993;BME280;38875;52.216;21.040;2022-09-09T08:33:48;148153.38;;;13.06;100.00
52993;BME280;38875;52.216;21.040;2022-09-09T08:36:19;148152.09;;;13.05;100.00
52993;BME280;38875;52.216;21.040;2022-09-09T08:38:51;148163.56;;;13.10;100.00
52993;BME280;38875;52.216;21.040;2022-09-09T08:46:42;148203.03;;;13.25;100.00
52993;BME280;38875;52.216;21.040;2022-09-09T08:49:38;148234.91;;;13.38;100.00
52993;BME280;38875;52.216;21.040;2022-09-09T08:52:25;148214.53;;;13.30;100.00
52993;BME280;38875;52.216;21.040;2022-09-09T08:54:56;148217.09;;;13.31;100.00
52993;BME280;38875;52.216;21.040;2022-09-09T08:57:28;148260.34;;;13.48;100.00
52993;BME280;38875;52.216;21.040;2022-09-09T08:59:57;148254.00;;;13.46;100.00
52993;BME280;38875;52.216;21.040;2022-09-09T09:02:44;148250.19;;;13.44;100.00
52993;BME280;38875;52.216;21.040;2022-09-09T09:05:26;148278.16;;;13.55;100.00
52993;BME280;38875;52.216;21.040;2022-09-09T09:10:50;148308.78;;;13.68;100.00
52993;BME280;38875;52.216;21.040;2022-09-09T09:13:20;148301.13;;;13.64;100.00
52993;BME280;38875;52.216;21.040;2022-09-09T09:15:58;148311.31;;;13.69;100.00
52993;BME280;38875;52.216;21.040;2022-09-09T09:18:26;148298.59;;;13.63;100.00
52993;BME280;38875;52.216;21.040;2022-09-09T09:21:19;148275.63;;;13.54;100.00
52993;BME280;38875;52.216;21.040;2022-09-09T09:23:59;148219.63;;;13.32;100.00
52993;BME280;38875;52.216;21.040;2022-09-09T09:26:30;148218.38;;;13.31;100.00
52993;BME280;38875;52.216;21.040;2022-09-09T09:28:58;148236.19;;;13.39;100.00
52993;BME280;38875;52.216;21.040;2022-09-09T09:31:24;148237.44;;;13.39;100.00
52993;BME280;38875;52.216;21.040;2022-09-09T09:33:53;148236.19;;;13.39;100.00
52993;BME280;38875;52.216;21.040;2022-09-09T09:36:24;148257.81;;;13.47;100.00
52993;BME280;38875;52.216;21.040;2022-09-09T09:39:00;148285.81;;;13.58;100.00
52993;BME280;38875;52.216;21.040;2022-09-09T09:43:56;148283.25;;;13.57;100.00
52993;BME280;38875;52.216;21.040;2022-09-09T09:46:24;148311.31;;;13.69;100.00
52993;BME280;38875;52.216;21.040;2022-09-09T09:49:04;148270.53;;;13.52;100.00
52993;BME280;38875;52.216;21.040;2022-09-09T09:51:34;148301.13;;;13.64;100.00
52993;BME280;38875;52.216;21.040;2022-09-09T09:56:39;148357.13;;;13.87;100.00
52993;BME280;38875;52.216;21.040;2022-09-09T09:59:05;148336.78;;;13.79;100.00
52993;BME280;38875;52.216;21.040;2022-09-09T10:01:44;148340.59;;;13.80;100.00
52993;BME280;38875;52.216;21.040;2022-09-09T10:06:41;148386.47;;;13.99;100.00
52993;BME280;38875;52.216;21.040;2022-09-09T10:09:26;148429.75;;;14.16;100.00
52993;BME280;38875;52.216;21.040;2022-09-09T10:12:01;148484.56;;;14.38;100.00
52993;BME280;38875;52.216;21.040;2022-09-09T10:22:39;148423.38;;;14.13;100.00
52993;BME280;38875;52.216;21.040;2022-09-09T10:25:20;148438.72;;;14.19;100.00
52993;BME280;38875;52.216;21.040;2022-09-09T10:33:49;148479.47;;;14.36;100.00
52993;BME280;38875;52.216;21.040;2022-09-09T10:36:26;148465.47;;;14.30;100.00
52993;BME280;38875;52.216;21.040;2022-09-09T10:39:03;148474.38;;;14.34;100.00
52993;BME280;38875;52.216;21.040;2022-09-09T10:42:04;148438.72;;;14.19;100.00
52993;BME280;38875;52.216;21.040;2022-09-09T10:47:39;148506.31;;;14.46;100.00
52993;BME280;38875;52.216;21.040;2022-09-09T10:50:40;148423.38;;;14.13;100.00
52993;BME280;38875;52.216;21.040;2022-09-09T10:55:47;148468.00;;;14.31;100.00
52993;BME280;38875;52.216;21.040;2022-09-09T10:58:24;148461.63;;;14.29;100.00
52993;BME280;38875;52.216;21.040;2022-09-09T11:00:54;148440.00;;;14.20;100.00
52993;BME280;38875;52.216;21.040;2022-09-09T11:03:28;148436.19;;;14.18;100.00
52993;BME280;38875;52.216;21.040;2022-09-09T11:06:17;148394.09;;;14.02;100.00
52993;BME280;38875;52.216;21.040;2022-09-09T11:08:45;148400.47;;;14.04;100.00
52993;BME280;38875;52.216;21.040;2022-09-09T11:13:57;148419.56;;;14.12;100.00
52993;BME280;38875;52.216;21.040;2022-09-09T11:16:39;148459.09;;;14.27;100.00
52993;BME280;38875;52.216;21.040;2022-09-09T11:21:48;148484.56;;;14.38;100.00
52993;BME280;38875;52.216;21.040;2022-09-09T11:24:37;148507.59;;;14.47;100.00
52993;BME280;38875;52.216;21.040;2022-09-09T11:40:37;148549.63;;;14.64;100.00
52993;BME280;38875;52.216;21.040;2022-09-09T11:43:13;148525.41;;;14.54;100.00
52993;BME280;38875;52.216;21.040;2022-09-09T11:45:40;148485.84;;;14.38;100.00
52993;BME280;38875;52.216;21.040;2022-09-09T11:48:32;148474.38;;;14.34;100.00
52993;BME280;38875;52.216;21.040;2022-09-09T11:51:08;148471.81;;;14.33;100.00
52993;BME280;38875;52.216;21.040;2022-09-09T11:53:58;148577.69;;;14.75;100.00
52993;BME280;38875;52.216;21.040;2022-09-09T11:59:00;148576.38;;;14.74;100.00
52993;BME280;38875;52.216;21.040;2022-09-09T12:01:33;148547.06;;;14.63;100.00
52993;BME280;38875;52.216;21.040;2022-09-09T12:06:56;148570.00;;;14.72;100.00
52993;BME280;38875;52.216;21.040;2022-09-09T12:19:40;148507.59;;;14.47;100.00
52993;BME280;38875;52.216;21.040;2022-09-09T12:22:24;148576.38;;;14.74;100.00
52993;BME280;38875;52.216;21.040;2022-09-09T12:28:09;148545.78;;;14.62;100.00
52993;BME280;38875;52.216;21.040;2022-09-09T12:30:55;148581.50;;;14.76;100.00
52993;BME280;38875;52.216;21.040;2022-09-09T12:33:23;148533.06;;;14.57;100.00
52993;BME280;38875;52.216;21.040;2022-09-09T12:35:57;148519.06;;;14.51;100.00
52993;BME280;38875;52.216;21.040;2022-09-09T12:38:40;148582.78;;;14.77;100.00
52993;BME280;38875;52.216;21.040;2022-09-09T12:41:21;148550.91;;;14.64;100.00
52993;BME280;38875;52.216;21.040;2022-09-09T12:43:48;148584.06;;;14.77;100.00
52993;BME280;38875;52.216;21.040;2022-09-09T12:46:24;148624.81;;;14.94;100.00
52993;BME280;38875;52.216;21.040;2022-09-09T12:48:54;148678.38;;;15.15;100.00
52993;BME280;38875;52.216;21.040;2022-09-09T12:51:31;148714.06;;;15.29;100.00
52993;BME280;38875;52.216;21.040;2022-09-09T12:53:59;148714.06;;;15.29;100.00
52993;BME280;38875;52.216;21.040;2022-09-09T12:56:31;148729.41;;;15.35;100.00
52993;BME280;38875;52.216;21.040;2022-09-09T12:58:57;148726.88;;;15.34;100.00
52993;BME280;38875;52.216;21.040;2022-09-09T13:01:28;148733.25;;;15.37;100.00
52993;BME280;38875;52.216;21.040;2022-09-09T13:03:55;148706.44;;;15.26;100.00
52993;BME280;38875;52.216;21.040;2022-09-09T13:06:25;148632.47;;;14.97;100.00
52993;BME280;38875;52.216;21.040;2022-09-09T13:08:53;148609.53;;;14.87;100.00
52993;BME280;38875;52.216;21.040;2022-09-09T13:11:40;148599.34;;;14.83;100.00
52993;BME280;38875;52.216;21.040;2022-09-09T13:14:20;148617.19;;;14.91;100.00
52993;BME280;38875;52.216;21.040;2022-09-09T13:16:56;148584.06;;;14.77;100.00
52993;BME280;38875;52.216;21.040;2022-09-09T13:19:22;148592.97;;;14.81;100.00
52993;BME280;38875;52.216;21.040;2022-09-09T13:21:51;148632.47;;;14.97;100.00
52993;BME280;38875;52.216;21.040;2022-09-09T13:24:34;148572.53;;;14.73;100.00
52993;BME280;38875;52.216;21.040;2022-09-09T13:27:05;148580.25;;;14.76;100.00
52993;BME280;38875;52.216;21.040;2022-09-09T13:29:52;148587.88;;;14.79;100.00
52993;BME280;38875;52.216;21.040;2022-09-09T13:32:22;148581.50;;;14.76;100.00
52993;BME280;38875;52.216;21.040;2022-09-09T13:34:56;148586.59;;;14.78;100.00
52993;BME280;38875;52.216;21.040;2022-09-09T13:37:31;148599.34;;;14.83;100.00
52993;BME280;38875;52.216;21.040;2022-09-09T13:39:58;148584.06;;;14.77;100.00
52993;BME280;38875;52.216;21.040;2022-09-09T13:42:32;148558.53;;;14.67;100.00
52993;BME280;38875;52.216;21.040;2022-09-09T13:45:01;148559.81;;;14.68;100.00
52993;BME280;38875;52.216;21.040;2022-09-09T13:47:31;148535.59;;;14.58;100.00
52993;BME280;38875;52.216;21.040;2022-09-09T13:49:57;148524.16;;;14.53;100.00
52993;BME280;38875;52.216;21.040;2022-09-09T13:52:23;148589.16;;;14.79;100.00
52993;BME280;38875;52.216;21.040;2022-09-09T13:54:52;148596.81;;;14.82;100.00
52993;BME280;38875;52.216;21.040;2022-09-09T13:57:19;148561.09;;;14.68;100.00
52993;BME280;38875;52.216;21.040;2022-09-09T13:59:46;148573.81;;;14.73;100.00
52993;BME280;38875;52.216;21.040;2022-09-09T14:02:13;148566.19;;;14.70;100.00
52993;BME280;38875;52.216;21.040;2022-09-09T14:04:38;148533.06;;;14.57;100.00
52993;BME280;38875;52.216;21.040;2022-09-09T14:07:12;148550.91;;;14.64;100.00
52993;BME280;38875;52.216;21.040;2022-09-09T14:09:40;148531.78;;;14.56;100.00
52993;BME280;38875;52.216;21.040;2022-09-09T14:12:12;148522.88;;;14.53;100.00
52993;BME280;38875;52.216;21.040;2022-09-09T14:14:39;148535.59;;;14.58;100.00
52993;BME280;38875;52.216;21.040;2022-09-09T14:17:05;148545.78;;;14.62;100.00
52993;BME280;38875;52.216;21.040;2022-09-09T14:19:31;148522.88;;;14.53;100.00
52993;BME280;38875;52.216;21.040;2022-09-09T14:21:58;148538.16;;;14.59;100.00
52993;BME280;38875;52.216;21.040;2022-09-09T14:24:24;148553.44;;;14.65;100.00
52993;BME280;38875;52.216;21.040;2022-09-09T14:26:50;148582.78;;;14.77;100.00
52993;BME280;38875;52.216;21.040;2022-09-09T14:29:16;148576.38;;;14.74;100.00
52993;BME280;38875;52.216;21.040;2022-09-09T14:31:42;148543.25;;;14.61;100.00
52993;BME280;38875;52.216;21.040;2022-09-09T14:34:07;148517.78;;;14.51;100.00
52993;BME280;38875;52.216;21.040;2022-09-09T14:36:37;148601.91;;;14.84;100.00
52993;BME280;38875;52.216;21.040;2022-09-09T14:39:04;148612.09;;;14.88;100.00
52993;BME280;38875;52.216;21.040;2022-09-09T14:41:30;148604.44;;;14.85;100.00
52993;BME280;38875;52.216;21.040;2022-09-09T14:43:56;148632.47;;;14.97;100.00
52993;BME280;38875;52.216;21.040;2022-09-09T14:46:22;148617.19;;;14.91;100.00
52993;BME280;38875;52.216;21.040;2022-09-09T14:48:48;148641.41;;;15.00;100.00
52993;BME280;38875;52.216;21.040;2022-09-09T14:51:20;148660.56;;;15.08;100.00